• Join FlightAware (Why Join?)
  • Login
  • US Flag 
01:52AM EST


 

Airport Tracker/Info


-or-


 

Live Flight TrackerFlight Track Log ✈ UAL4663 ✈ 08-Apr-2013 ✈ KEWR - KCHS

Flight Track Log - Related Links

Times and Time Zones

All times are in EDT time to prevent confusion due to time zone crossing. See the UAL4663 flight status page for this flight to view local times or setup timezone preferences in your user account.

Time Position Orientation Groundspeed Altitude Reporting Facility
EDT Latitude Longitude Course Direction KTS MPH feet Rate Location/Type
07:47PM 40.6333 -74.2000 217° Southwest 204 235 2,300  Level New York TRACON
07:48PM 40.5833 -74.2500 217° Southwest 230 265 4,400 1,740 Climbing New York TRACON
07:49PM 40.5167 -74.2667 191° South 259 298 5,800 900 Climbing New York TRACON
07:50PM 40.3079 -74.1540 159° South  Level FlightAware Approximate
07:50PM 40.4500 -74.2333 159° South 254 292 6,200  Level New York TRACON
07:51PM 40.2079 -74.1807 194° South  Level FlightAware Approximate
07:52PM 40.1085 -74.2167 180° South  Level FlightAware Approximate
07:52PM 40.2969 -74.2081 173° South 270 311 10,000  Level New York Center
07:53PM 40.0086 -74.2414 217° Southwest  Level FlightAware Approximate
07:53PM 40.2172 -74.2231 188° South 307 353 10,600  Level New York Center
07:54PM 40.1211 -74.2344 185° South 339 390 11,800 1,380 Climbing New York Center
07:55PM 40.0142 -74.2564 189° South 364 419 13,400 1,380 Climbing New York Center
07:56PM 39.9339 -74.3197 211° Southwest 334 384 14,500 1,140 Climbing Washington Center
07:57PM 39.8556 -74.3942 216° Southwest 342 394 15,700 1,140 Climbing Washington Center
07:58PM 39.7814 -74.4817 222° Southwest 356 410 16,800 1,080 Climbing Washington Center
07:59PM 39.7114 -74.5747 226° Southwest 361 415 17,900 1,140 Climbing Washington Center
08:00PM 39.6392 -74.6672 225° Southwest 366 421 19,100 1,140 Climbing Washington Center
08:01PM 39.5689 -74.7597 225° Southwest 366 421 20,200 900 Climbing Washington Center
08:02PM 39.4967 -74.8572 226° Southwest 366 421 21,000 900 Climbing Washington Center
08:03PM 39.4222 -74.9547 225° Southwest 372 428 22,100 1,020 Climbing Washington Center
08:04PM 39.3558 -75.0414 225° Southwest 377 434 23,100 1,200 Climbing Washington Center
08:05PM 39.2772 -75.1278 220° Southwest 382 440 24,500 1,380 Climbing Washington Center
08:06PM 39.1878 -75.1981 211° Southwest 382 440 25,900 1,500 Climbing Washington Center
08:07PM 39.0983 -75.2625 209° Southwest 382 440 27,500 1,500 Climbing Washington Center
08:08PM 39.0108 -75.3272 210° Southwest 371 427 29,000 1,500 Climbing Washington Center
08:09PM 38.9297 -75.3942 213° Southwest 359 413 30,500 1,500 Climbing Washington Center
08:10PM 38.8486 -75.4558 211° Southwest 349 402 32,000 1,320 Climbing Washington Center
08:11PM 38.7694 -75.5197 212° Southwest 349 402 33,200 1,080 Climbing Washington Center
08:12PM 38.6861 -75.5811 210° Southwest 344 396 34,200 960 Climbing Washington Center
08:13PM 38.6047 -75.6394 209° Southwest 344 396 35,200 900 Climbing Washington Center
08:14PM 38.5233 -75.7031 211° Southwest 344 396 36,000 360 Climbing Washington Center
08:15PM 38.4378 -75.7614 208° Southwest 344 396 36,000  Level Washington Center
08:16PM 38.3356 -75.8353 210° Southwest 363 418 36,000  Level Washington Center
08:17PM 38.2394 -75.9089 211° Southwest 390 449 36,000  Level Washington Center
08:18PM 38.1392 -75.9825 210° Southwest 409 471 36,000  Level Washington Center
08:19PM 38.0367 -76.0583 210° Southwest 423 487 36,000  Level Washington Center
08:20PM 37.9342 -76.1314 209° Southwest 428 493 36,000  Level Washington Center
08:21PM 37.8339 -76.2069 211° Southwest 428 493 36,000  Level Washington Center
08:22PM 37.7333 -76.2797 210° Southwest 423 487 36,000  Level Washington Center
08:23PM 37.6328 -76.3550 211° Southwest 423 487 36,000  Level Washington Center
08:24PM 37.5300 -76.4272 209° Southwest 423 487 36,000  Level Washington Center
08:25PM 37.4294 -76.5019 211° Southwest 423 487 36,000  Level Washington Center
08:26PM 37.3286 -76.5739 210° Southwest 423 487 36,000  Level Washington Center
08:27PM 37.2258 -76.6456 209° Southwest 423 487 36,000  Level Washington Center
08:28PM 37.1231 -76.7225 211° Southwest 423 487 36,000  Level Washington Center
08:29PM 37.0219 -76.7964 210° Southwest 423 487 36,000  Level Washington Center
08:30PM 36.9253 -76.8806 215° Southwest 428 493 36,000  Level Washington Center
08:31PM 36.8242 -76.9644 214° Southwest 434 499 36,000  Level Washington Center
08:32PM 36.7250 -77.0533 216° Southwest 440 506 36,000  Level Washington Center
08:33PM 36.6258 -77.1369 214° Southwest 440 506 36,000  Level Washington Center
08:34PM 36.5269 -77.2203 214° Southwest 440 506 36,000  Level Washington Center
08:35PM 36.4256 -77.3061 214° Southwest 440 506 36,000  Level Washington Center
08:36PM 36.3219 -77.3939 214° Southwest 446 513 36,000  Level Washington Center
08:37PM 36.2439 -77.4567 213° Southwest 446 513 36,000  Level Washington Center
08:38PM 36.1381 -77.5519 216° Southwest 441 507 36,000  Level Washington Center
08:39PM 36.0364 -77.6367 214° Southwest 441 507 36,000  Level Washington Center
08:40PM 35.9347 -77.7186 213° Southwest 441 507 36,000  Level Washington Center
08:41PM 35.8353 -77.8006 214° Southwest 441 507 36,000  Level Washington Center
08:42PM 35.7378 -77.8822 214° Southwest 441 507 36,000  Level Washington Center
08:43PM 35.6361 -77.9636 213° Southwest 441 507 36,000  Level Washington Center
08:44PM 35.5342 -78.0450 213° Southwest 441 507 36,000  Level Washington Center
08:45PM 35.4367 -78.1261 214° Southwest 441 507 36,000  Level Washington Center
08:46PM 35.3325 -78.2094 213° Southwest 441 507 36,000  Level Washington Center
08:47PM 35.2286 -78.2872 211° Southwest 446 513 36,000  Level Washington Center
08:48PM 35.1267 -78.3678 213° Southwest 446 513 36,000  Level Washington Center
08:49PM 35.0139 -78.4525 212° Southwest 446 513 36,000  Level Washington Center
08:51PM 34.8331 -78.5881 212° Southwest 446 513 36,000  Level Jacksonville Center
08:52PM 34.7317 -78.6689 213° Southwest 446 513 36,000 -360 Level Jacksonville Center
08:53PM 34.6297 -78.7419 211° Southwest 440 506 35,300 -1,320 Descending Jacksonville Center
08:54PM 34.5281 -78.8250 214° Southwest 440 506 33,400 -2,160 Descending Jacksonville Center
08:55PM 34.4142 -78.9158 213° Southwest 440 506 31,000 -2,340 Descending Jacksonville Center
08:56PM 34.3103 -78.9961 213° Southwest 445 512 28,800 -1,860 Descending Jacksonville Center
08:57PM 34.1933 -79.0592 204° Southwest 445 512 27,300 -1,860 Descending Jacksonville Center
08:58PM 34.0739 -79.1094 199° South 457 526 25,100 -2,100 Descending Jacksonville Center
08:59PM 33.9525 -79.1672 202° Southwest 462 532 23,200 -1,800 Descending Jacksonville Center
09:00PM 33.8392 -79.2172 200° South 462 532 21,500 -1,980 Descending Jacksonville Center
09:01PM 33.7325 -79.2789 206° Southwest 443 510 19,300 -2,100 Descending Jacksonville Center
09:02PM 33.6383 -79.3478 211° Southwest 423 487 17,400 -2,040 Descending Jacksonville Center
09:03PM 33.5464 -79.4161 212° Southwest 410 472 15,300 -2,100 Descending Jacksonville Center
09:04PM 33.4586 -79.4844 213° Southwest 392 451 13,200 -2,100 Descending Jacksonville Center
09:05PM 33.3728 -79.5497 212° Southwest 382 440 11,100 -1,320 Descending Jacksonville Center
09:06PM 33.2889 -79.6200 215° Southwest 382 440 10,600 -720 Descending Jacksonville Center
09:07PM 33.2303 -79.6892 225° Southwest 345 397 9,700 -1,200 Descending Jacksonville Center
09:08PM 33.1775 -79.7556 226° Southwest 302 348 8,200 -1,800 Descending Jacksonville Center
09:09PM 33.1269 -79.8194 227° Southwest 275 316 6,100 -1,800 Descending Jacksonville Center
09:10PM 33.0822 -79.8706 224° Southwest 254 292 4,600 -1,320 Descending Jacksonville Center
09:11PM 33.0358 -79.9292 227° Southwest 246 283 3,500 -1,260 Descending Jacksonville Center
09:12PM 32.9911 -79.9825 225° Southwest 241 277 2,100 -1,440 Descending Jacksonville Center